Timeline UpdatesTrip UpdatesNews PostsPvt PostsTravel TipsAdmin PostsConv PostsFollowed PostsChat RequestsBlog PostsPNR Posts

Disclaimer
Search
 
 
Wed Apr 16, 2014 12:46:44 ISTHomeTrainsΣChainsAtlasPNRForumGalleryNewsFAQTripsMembersLoginFeedback
No Recent News for this Train
Other Trains in the News **new
Latest...
It has been decided to extend the service of 75719/75720 Malda Town – Coochbehar DEMU upto Dinhata w.e.f. 2nd August 2013 for the benefit of travelling public of Dinhata sub-division of North Bengal. 75720 Dinhata - Coochbehar - Malda Town DEMU will leave Dinhata at 06.26 hrs to arrive at Coochbehar at 07.01 hrs and continue its run to Malda Town.
Thu Aug 01, 2013 (11:38AM)
⇐ Return Journey: Train# 75719

75402⇒75720/Dinhata - MaldaTown DEMU

Sep 25 2013 (11:33PM)
Change Departure Station:
Change Arrival Station:
Post a Train Travel TipPost a Train Travel Tip **new
Post a Comment/Question/Picture/VideoPost a Comment/Question/Picture/Video
Pantry/Catering
✕ NO Pantry Car
✕ NO Catering
RSA - Rake Sharing
Rake/Coach Composition
Loco
News    PNR    Forum    Time-Table    Availability    Fare Chart    Map    Arr/Dep History    Trips    Gallery    ΣChains    X/O    Timeline    
Travel Time: 3h 19m    18 halts    Distance: 142 km    Avg Speed: 42 km/hr
Type: DEMU
Zone: NFR/Northeast Frontier
Departs @ 10:04 (Avg 50m late)
Platform# ???
SMTWTFS
Raninagar Jalpaiguri Junction/RQJ 
Arrives @ 13:23 (Avg 2h 12m late)
Platform# ???
SMTWTFS
Dalkhola/DLK 

18 halts. 19 intermediate Stations between Raninagar Jalpaiguri Junction and Dalkhola

Show ALL intermediate Stations  Show Old Time-Table

#CodeStation NameX/OArrivesAvgDepartsAvgHaltPFDay#KmSpeedElevZoneAddress
1DHHDinhata (2)  -06:26-11-126.63639mNFRDist - Coochbehar, West Bengal
2DCHDinhatta College Halt (1)  06:30-06:31-1m11-124.23638mNFRDinhata, West Bengal
3VTGBhetaguri (1)  06:42-06:43-1m11-117.54443mNFRBhetaguri, West Bengal
4DWTDewan Hat (1)  06:48-06:49-1m11-113.95141mNFRdist - Coachbehar, West Bengal
5COBCooch Behar (1)  07:01-07:05+184m11-103.75546mNFRCooch Behar, West Bengal
6NCBNew Cooch Behar Junction (5)X  07:10+1007:15+105m--1-99.16147mNFRCooch Behar, West Bengal
7PQZPundibari (2)X  07:25+1107:26+121m11-89.02753mNFRDist - Coochbehar, West Bengal
8SJRRSajherpar  07:36+1007:37+101m--1-84.56554mNFRPundibari, West Bengal
9GDXGhoksadanga  07:44+1107:46+112m--1-77.05258mNFRSiliguri Rd, West Bengal
10GUZGumanihat (2)  07:52+1107:53+121m11-71.87860mNFRKusaribari, West Bengal
11FLKFalakata (3)X  08:01+1208:02+131m--1-61.33067mNFRDist - Jalpaiguri, West Bengal
12SXXSalbari (2)X  08:20+1008:21+121m--1-52.42869mNFRDist - jalpaiguri, West Bengal
13KLGRKolai Gram  08:35+1008:36+121m--1-45.76875mNFRFalakata Rd, West Bengal
14DQGDhupguri (2)  08:42+1208:43+131m--1-39.05875mNFRDist - Jalpaiguri, West Bengal
15ATMAltagram (2)X  08:50+1308:51+131m--1-32.24385mNFRDist - Jalpaiguri, West Bengal
16BYXABetgara (2)X  09:03+1209:04+131m11-23.54289mNFRDIST - Jalpaiguri, West Bengal
17NMXNew Maynaguri (2)  09:11+1209:12+121m--1-18.75786mNFRDist - Jalpaiguri, West Bengal
18NQHNew Domohani (2)X  09:16+1309:17+131m11-14.82784mNFRDist - JALPAIGURI, West Bengal
19JPEJalpaiguri Road (2)X  09:34+3509:35+351m11-7.21589mNFRdist - Jalpaiguri 735102, West Bengal
20RQJ»Raninagar Jalpaiguri Junction (3)»X  10:03+4110:04+501m--10.05891mNFRDIST - Jalpaiguri, West Bengal
21BLKBelakoba (1)  10:12+5210:13+1:001m117.76399mNFRDist - jalpaiguri, West Bengal
22ABFCAmbari Falakata (2)X  10:22+1:0310:23+1:081m--117.131105mNFRdist - jalpaiguri 735201, West Bengal
23NJPNew Jalpaiguri Junction (8)X  10:40+5410:50+1:0610m--125.841114mNFRCity-Siliguri . Dist-Jalpaiguri, West Bengal
24RNIRangapani (2)  11:01+1:3011:02+1:311m--133.259114mNFRSILIGURI Dist - Darjeeling, West Bengal
25NJBNijbari  11:09+1:3311:10+1:331m--140.161104mNFRFulbari Ghoshpukur Bypass, West Bengal
26CATChattar Hat (2)X  11:17+1:3411:18+1:421m--147.25491mNFRChattar, West Bengal
27DMZDumdangiXO  11:28+1:4311:29+1:441m--156.32286mNFRHaftia Rd, West Bengal
28TMHTin Mile HatX  11:53+1:3011:54+1:321m--165.26174mNFRTin Mile, West Bengal
29MXJMangurjan  12:00+1:3412:01+1:371m--171.36469mNFRMangurjan, West Bengal
30DBQDhulabari  12:07+1:3712:08+1:371m--177.75868mNFRKishanganj, Bihar
31AUBAluabari Road (2)X  12:13+1:3612:15+1:382m--182.6680mNFRDist - uttar Dinajpur, West Bengal
32GEORGunjariaX  12:22+1:4112:23+1:411m--190.55764mNFRNational Highway 31, West Bengal
33GILGaisal (3)X  12:29+1:4112:30+1:461m--196.26662mNFRNational Highway 31, West Bengal
34PJPPanjipara (3)  12:38+1:4812:39+1:551m--1104.96155mNFRNational Highway 31, West Bengal
35KNEKishanGanj (3)  12:47+1:4412:49+1:452m--1113.14652mNFRKishanganj, Bihar
36HWRHatwar (2)X  13:00+1:5913:01+2:021m--1121.65446mNFRNational Highway 31, West Bengal
37KKAKanki (3)X  13:07+2:0513:08+2:061m--1127.06547mNFRKanki, West Bengal
38SJKLSurja Kamal (2)  13:15+2:0813:16+2:101m--1134.66144mNFRNational Highway 31, West Bengal
39DLK•Dalkhola (3)•  13:23+2:1213:25+2:142m--1141.76144mNFRDalkola, West Bengal
40TETATelta (2)  13:33+2:1613:34+2:171m--1149.83440mNFRRupauli, Bihar
41AHLAjharail  13:39+2:1713:40+2:171m--1152.65337mNFRNational Highway 34, West Bengal
42SUDSudhani (2)X  13:47+2:1713:48+2:211m--1158.8938mNFRState Highway 65, Bihar
43SJGMSanjay Gram  14:11+2:0714:12+2:071m--1162.27334mNFRSanjay Gram, West Bengal
44BOEBarsoi Junction (3)  14:19+2:0814:21+2:102m--1170.75137mNFRdist- katihar, Bihar
45MFAMukuria Junction (2)  14:26+2:1214:27+2:131m--1175.04832mNFRMukuria, Bihar
46BWPBBhawanipur BiharX  14:32+2:1514:33+2:151m--1179.05236mNFRBhawanipur, Bihar
47AZRAzamnagar Road (2)O  14:38+2:1514:39+2:161m--1183.41634mNFRAzamnagar, Bihar
48KMPHKamalpur HaltX  14:57+2:0714:58+2:071m--1188.25732mNFRKamalpur, Bihar
49KWEKhurial (2)  15:01+2:0615:02+2:071m--1191.07233mNFRKhurial, Bihar
50BAHNBabhabgaon Halt  15:06+2:0315:07+2:031m--1195.8931mNFRBabhabgaon, West Bengal
51KDPRKumedpur Junction (4)  15:20+2:0215:22+2:052m--1197.77632mNFRDist. - Malda, West Bengal
52HCRHarischandrapur  15:28+2:0615:29+2:091m--1205.34731mNFRHarischandrapur, West Bengal
53MQGMilangarhX  15:35+2:1315:36+2:131m--1210.03529mNFRMilangarh, West Bengal
54BKRDBhaluka Road FX  15:42+2:1315:43+2:151m--1213.57530mNFRBhaluka, West Bengal
55MFZMalaharX  15:48+2:1715:49+2:171m--1219.86031mNFRNational Highway 81, West Bengal
56SMSamsi (2)  15:55+2:1415:57+2:142m--1225.84932mNFRdist - Malda, West Bengal
57SRPUSripur Halt (2)  16:02+2:1916:03+2:191m--1229.87227mNFRSripur, West Bengal
58KMRJKumarganj  16:07+2:1916:08+2:211m--1234.65728mNFRNational Highway 34, West Bengal
59MBCMahananda BridgeX  16:12+2:2316:13+2:231m--1238.44128mNFRMahananda, West Bengal
60EKIEklakhi Junction (3)  16:17+2:2316:18+2:281m--1241.22333mNFRDistt. - Malda, West Bengal
61ADFAdina  16:35+2:2016:36+2:261m--1247.72533mNFRNational Highway 34, West Bengal
62OMLFOld Malda Junction (3)  16:53+2:2016:54+2:181m--1254.91131mNFRDist - Malda, West Bengal
63MLDTMalda Town (5)  17:25+2:02---1260.6-30mERDist - Malda, West Bengal
Scroll to Top
Scroll to Bottom